Time;durP1;ratioP1;P1;durP2;ratioP2;P2;SDS_P1;SDS_P2;PMS_P1;PMS_P2;Temp;Humidity;BMP_temperature;BMP_pressure;BME280_temperature;BME280_humidity;BME280_pressure;Samples;Min_cycle;Max_cycle;Signal;HPM_P1;HPM_P2
2023/08/18 00:01:42;;;;;;;24.90;22.60;;;21.00;99.10;;;;;;5074730;28;20464;-58
2023/08/18 00:04:09;;;;;;;25.07;22.47;;;21.00;99.20;;;;;;5074721;28;20437;-59
2023/08/18 00:06:37;;;;;;;26.70;24.00;;;21.00;99.20;;;;;;5074710;28;20444;-59
2023/08/18 00:09:05;;;;;;;26.50;23.93;;;20.90;99.10;;;;;;5075428;28;20440;-59
2023/08/18 00:11:31;;;;;;;25.47;22.97;;;20.90;99.20;;;;;;5074396;28;20495;-59
2023/08/18 00:13:58;;;;;;;25.97;23.47;;;20.90;99.20;;;;;;5074480;28;20445;-59
2023/08/18 00:16:25;;;;;;;28.13;25.13;;;20.90;99.30;;;;;;5074396;28;20473;-59
2023/08/18 00:18:51;;;;;;;25.90;23.33;;;20.90;99.40;;;;;;5074435;28;20773;-59
2023/08/18 00:21:18;;;;;;;26.07;22.83;;;20.80;99.40;;;;;;5073989;28;20874;-58
2023/08/18 00:23:46;;;;;;;27.60;25.00;;;20.80;99.40;;;;;;5074301;28;20445;-59
2023/08/18 00:26:13;;;;;;;25.73;23.23;;;20.90;99.50;;;;;;5074269;28;20440;-59
2023/08/18 00:28:39;;;;;;;28.37;24.50;;;20.80;99.50;;;;;;5074690;28;20441;-58
2023/08/18 00:31:06;;;;;;;28.90;25.90;;;20.80;99.50;;;;;;5073850;28;21005;-59
2023/08/18 00:33:33;;;;;;;27.27;24.47;;;20.80;99.60;;;;;;5074147;28;20523;-58
2023/08/18 00:35:59;;;;;;;27.10;23.70;;;20.80;99.60;;;;;;5073891;28;20484;-58
2023/08/18 00:38:26;;;;;;;30.27;23.47;;;20.80;99.60;;;;;;5074052;28;20444;-59
2023/08/18 00:40:55;;;;;;;28.77;24.50;;;20.80;99.60;;;;;;5073945;28;20472;-59
2023/08/18 00:43:22;;;;;;;27.27;24.57;;;20.80;99.60;;;;;;5073928;28;20444;-59
2023/08/18 00:45:49;;;;;;;26.90;24.20;;;20.70;99.60;;;;;;5073931;28;20437;-59
2023/08/18 00:48:16;;;;;;;28.13;25.20;;;20.70;99.70;;;;;;5073914;28;20440;-59
2023/08/18 00:50:44;;;;;;;26.30;23.60;;;20.70;99.60;;;;;;5073780;28;20465;-58
2023/08/18 00:53:11;;;;;;;28.67;25.73;;;20.70;99.70;;;;;;5073445;28;20938;-59
2023/08/18 00:55:39;;;;;;;28.17;24.90;;;20.70;99.70;;;;;;5073708;28;20845;-59
2023/08/18 00:58:08;;;;;;;26.57;23.37;;;20.70;99.80;;;;;;5073433;28;20851;-59
2023/08/18 01:00:36;;;;;;;26.23;23.47;;;20.70;99.90;;;;;;5073291;28;20475;-58
2023/08/18 01:03:04;;;;;;;23.03;20.67;;;20.70;99.90;;;;;;5073641;28;20448;-58
2023/08/18 01:05:31;;;;;;;25.87;22.30;;;20.70;99.90;;;;;;5073437;28;20440;-58
2023/08/18 01:07:57;;;;;;;25.73;22.83;;;20.60;99.90;;;;;;5073307;28;20961;-59
2023/08/18 01:10:26;;;;;;;28.13;22.57;;;20.60;99.90;;;;;;5073235;28;20809;-58
2023/08/18 01:13:01;;;;;;;23.90;21.43;;;20.60;99.90;;;;;;5073500;28;20451;-59
2023/08/18 01:15:33;;;;;;;25.83;23.07;;;20.60;99.90;;;;;;5073506;28;20435;-59
2023/08/18 01:18:01;;;;;;;24.27;21.70;;;20.60;99.90;;;;;;5073208;28;20895;-58
2023/08/18 01:20:29;;;;;;;23.40;20.70;;;20.60;99.90;;;;;;5073469;28;20495;-59
2023/08/18 01:22:58;;;;;;;24.03;21.53;;;20.60;99.90;;;;;;5074766;28;20441;-59
2023/08/18 01:25:25;;;;;;;24.73;21.33;;;20.60;99.90;;;;;;5074738;28;20445;-59
2023/08/18 01:27:53;;;;;;;24.43;22.00;;;20.60;99.90;;;;;;5074502;28;20942;-59
2023/08/18 01:30:20;;;;;;;27.63;22.87;;;20.50;99.90;;;;;;5073502;28;20444;-59
2023/08/18 01:32:52;;;;;;;24.40;21.77;;;20.50;99.90;;;;;;5073504;28;20445;-59
2023/08/18 01:35:21;;;;;;;28.83;24.03;;;20.50;99.90;;;;;;5074400;28;20440;-58
2023/08/18 01:37:49;;;;;;;25.63;21.40;;;20.50;99.90;;;;;;5073413;28;20433;-59
2023/08/18 01:40:18;;;;;;;28.27;23.70;;;20.50;99.90;;;;;;5073238;28;20441;-58
2023/08/18 01:42:46;;;;;;;24.87;22.20;;;20.50;99.90;;;;;;5073257;28;20444;-58
2023/08/18 01:45:14;;;;;;;24.27;21.27;;;20.50;99.90;;;;;;5073166;28;20635;-59
2023/08/18 01:47:41;;;;;;;25.60;22.90;;;20.50;99.90;;;;;;5073123;28;20440;-58
2023/08/18 01:50:09;;;;;;;28.57;24.93;;;20.50;99.90;;;;;;5072752;28;20975;-58
2023/08/18 01:52:35;;;;;;;26.97;23.10;;;20.50;99.90;;;;;;5073111;28;20448;-58
2023/08/18 01:55:02;;;;;;;30.33;24.27;;;20.40;99.90;;;;;;5073123;28;20448;-58
2023/08/18 01:57:31;;;;;;;25.10;22.43;;;20.40;99.90;;;;;;5072997;28;20476;-59
2023/08/18 01:59:57;;;;;;;29.47;24.63;;;20.50;99.90;;;;;;5073056;28;20448;-58
2023/08/18 02:02:24;;;;;;;30.23;25.93;;;20.50;99.90;;;;;;5072953;28;20461;-58
2023/08/18 02:04:51;;;;;;;28.60;24.40;;;20.50;99.90;;;;;;5073789;28;20487;-59
2023/08/18 02:07:18;;;;;;;28.30;21.70;;;20.50;99.90;;;;;;5072797;28;20444;-58
2023/08/18 02:09:44;;;;;;;28.20;22.50;;;20.50;99.90;;;;;;5072933;28;20448;-59
2023/08/18 02:12:11;;;;;;;28.03;24.00;;;20.50;99.90;;;;;;5072951;28;20461;-58
2023/08/18 02:14:39;;;;;;;30.13;23.77;;;20.50;99.90;;;;;;5072628;28;21024;-59
2023/08/18 02:17:06;;;;;;;32.93;26.07;;;20.50;99.90;;;;;;5072874;28;20488;-58
2023/08/18 02:19:33;;;;;;;35.57;24.90;;;20.50;99.90;;;;;;5072941;28;20453;-58
2023/08/18 02:21:59;;;;;;;27.13;21.53;;;20.60;99.90;;;;;;5072518;28;20480;-59
2023/08/18 02:24:26;;;;;;;29.03;21.33;;;20.60;99.90;;;;;;5072951;28;20452;-58
2023/08/18 02:26:53;;;;;;;33.27;24.80;;;20.60;99.90;;;;;;5072831;28;20829;-59
2023/08/18 02:29:20;;;;;;;37.57;26.60;;;20.60;99.90;;;;;;5072864;28;20440;-59
2023/08/18 02:31:49;;;;;;;31.03;24.33;;;20.60;99.90;;;;;;5072666;28;20465;-59
2023/08/18 02:34:15;;;;;;;32.73;26.07;;;20.60;99.90;;;;;;5075733;28;20444;-58
2023/08/18 02:36:42;;;;;;;27.93;23.50;;;20.60;99.90;;;;;;5076483;28;20484;-58
2023/08/18 02:39:09;;;;;;;35.23;25.57;;;20.60;99.90;;;;;;5076400;28;20440;-58
2023/08/18 02:41:35;;;;;;;32.60;24.63;;;20.60;99.90;;;;;;5075969;28;20465;-58
2023/08/18 02:44:03;;;;;;;27.00;23.03;;;20.70;99.90;;;;;;5076255;28;20444;-58
2023/08/18 02:46:29;;;;;;;28.57;22.67;;;20.70;99.90;;;;;;5076370;28;20440;-58
2023/08/18 02:48:57;;;;;;;33.70;25.13;;;20.70;99.90;;;;;;5076218;28;20436;-58
2023/08/18 02:51:24;;;;;;;34.00;24.97;;;20.60;99.90;;;;;;5076085;28;20468;-58
2023/08/18 02:53:51;;;;;;;33.77;25.63;;;20.70;99.90;;;;;;5076654;28;20453;-58
2023/08/18 02:56:17;;;;;;;26.43;23.10;;;20.70;99.90;;;;;;5075973;28;20880;-58
2023/08/18 02:58:44;;;;;;;29.17;22.83;;;20.70;99.90;;;;;;5075983;28;20444;-58
2023/08/18 03:01:11;;;;;;;33.27;25.47;;;20.70;99.90;;;;;;5075632;28;20836;-58
2023/08/18 03:03:37;;;;;;;34.83;24.07;;;20.70;99.90;;;;;;5075906;28;20440;-58
2023/08/18 03:06:08;;;;;;;24.70;20.73;;;20.70;99.90;;;;;;5075902;28;20444;-58
2023/08/18 03:08:36;;;;;;;29.40;21.60;;;20.70;99.90;;;;;;5075798;28;20429;-57
2023/08/18 03:11:05;;;;;;;23.53;20.30;;;20.70;99.90;;;;;;5075739;28;20518;-58
2023/08/18 03:13:31;;;;;;;26.97;23.27;;;20.60;99.90;;;;;;5075690;28;20451;-58
2023/08/18 03:15:59;;;;;;;26.60;20.87;;;20.60;99.90;;;;;;5075626;28;20518;-58
2023/08/18 03:18:25;;;;;;;30.27;21.83;;;20.70;99.90;;;;;;5075671;28;20452;-58
2023/08/18 03:20:59;;;;;;;30.00;24.83;;;20.70;99.90;;;;;;5075696;28;20472;-58
2023/08/18 03:23:27;;;;;;;30.70;24.20;;;20.70;99.90;;;;;;5075572;28;20927;-58
2023/08/18 03:26:00;;;;;;;27.97;23.33;;;20.70;99.90;;;;;;5075361;28;20444;-59
2023/08/18 03:28:27;;;;;;;27.53;23.20;;;20.70;99.90;;;;;;5075588;28;20431;-59
2023/08/18 03:30:58;;;;;;;27.00;21.77;;;20.70;99.90;;;;;;5075054;28;20974;-59
2023/08/18 03:33:25;;;;;;;32.63;24.63;;;20.70;99.90;;;;;;5075453;28;20431;-59
2023/08/18 03:35:52;;;;;;;26.60;21.67;;;20.70;99.90;;;;;;5075356;28;20448;-59
2023/08/18 03:38:18;;;;;;;24.50;20.97;;;20.70;99.90;;;;;;5075560;28;20525;-59
2023/08/18 03:40:46;;;;;;;23.37;20.80;;;20.70;99.90;;;;;;5075183;28;20475;-59
2023/08/18 03:43:13;;;;;;;28.27;24.30;;;20.70;99.90;;;;;;5074902;28;20445;-59
2023/08/18 03:45:40;;;;;;;29.57;24.77;;;20.70;99.90;;;;;;5074819;28;20451;-59
2023/08/18 03:48:08;;;;;;;34.47;23.30;;;20.70;99.90;;;;;;5074766;28;20436;-59
2023/08/18 03:50:34;;;;;;;29.37;22.37;;;20.70;99.90;;;;;;5075104;28;20471;-59
2023/08/18 03:53:02;;;;;;;28.50;23.47;;;20.60;99.90;;;;;;5074978;28;20444;-59
2023/08/18 03:55:29;;;;;;;29.60;24.10;;;20.70;99.90;;;;;;5074571;28;20812;-59
2023/08/18 03:57:57;;;;;;;32.73;24.77;;;20.70;99.90;;;;;;5074750;28;20484;-59
2023/08/18 04:00:23;;;;;;;23.53;20.53;;;20.70;99.90;;;;;;5074424;28;20445;-59
2023/08/18 04:02:50;;;;;;;28.37;21.67;;;20.70;99.90;;;;;;5074821;28;20452;-59
2023/08/18 04:05:17;;;;;;;27.63;21.40;;;20.70;99.90;;;;;;5074367;28;20804;-59
2023/08/18 04:07:44;;;;;;;27.33;22.40;;;20.70;99.90;;;;;;5075459;28;20436;-59
2023/08/18 04:10:11;;;;;;;26.33;23.17;;;20.70;99.90;;;;;;5074558;28;20444;-59
2023/08/18 04:12:37;;;;;;;25.37;22.27;;;20.70;99.90;;;;;;5074750;28;20449;-59
2023/08/18 04:15:07;;;;;;;26.53;21.80;;;20.60;99.90;;;;;;5074531;28;20463;-59
2023/08/18 04:17:34;;;;;;;32.33;24.47;;;20.70;99.90;;;;;;5074074;28;20559;-59
2023/08/18 04:20:00;;;;;;;29.17;23.70;;;20.70;99.90;;;;;;5074359;28;20445;-59
2023/08/18 04:22:27;;;;;;;29.00;24.70;;;20.70;99.90;;;;;;5073974;28;20960;-59
2023/08/18 04:24:53;;;;;;;33.60;25.40;;;20.70;99.90;;;;;;5073902;28;20939;-59
2023/08/18 04:27:20;;;;;;;28.17;24.60;;;20.70;99.90;;;;;;5073989;28;20813;-59
2023/08/18 04:29:47;;;;;;;29.10;23.33;;;20.70;99.90;;;;;;5074253;28;20480;-59
2023/08/18 04:32:15;;;;;;;28.60;22.80;;;20.70;99.90;;;;;;5074062;28;20514;-59
2023/08/18 04:34:42;;;;;;;30.47;24.87;;;20.70;99.90;;;;;;5074150;28;20484;-59
2023/08/18 04:37:09;;;;;;;28.93;21.13;;;20.70;99.90;;;;;;5074001;28;20472;-59
2023/08/18 04:39:36;;;;;;;23.60;20.60;;;20.70;99.90;;;;;;5073916;28;20449;-59
2023/08/18 04:42:02;;;;;;;27.93;21.00;;;20.60;99.90;;;;;;5073912;28;20472;-59
2023/08/18 04:44:29;;;;;;;30.37;24.80;;;20.70;99.90;;;;;;5073921;28;20447;-59
2023/08/18 04:46:56;;;;;;;27.23;22.10;;;20.70;99.90;;;;;;5073925;28;20444;-59
2023/08/18 04:49:24;;;;;;;26.30;23.60;;;20.70;99.90;;;;;;5073864;28;20448;-59
2023/08/18 04:51:50;;;;;;;23.20;20.70;;;20.70;99.90;;;;;;5073651;28;20465;-59
2023/08/18 04:54:17;;;;;;;24.37;20.73;;;20.60;99.90;;;;;;5073796;28;20447;-59
2023/08/18 04:56:44;;;;;;;24.20;21.30;;;20.70;99.90;;;;;;5072956;28;22395;-59
2023/08/18 04:59:11;;;;;;;24.33;21.07;;;20.70;99.90;;;;;;5073804;28;20455;-59
2023/08/18 05:01:37;;;;;;;25.93;21.33;;;20.60;99.90;;;;;;5073592;28;20471;-59
2023/08/18 05:04:04;;;;;;;25.90;22.60;;;20.70;99.90;;;;;;5073471;28;20441;-59
2023/08/18 05:06:32;;;;;;;26.40;22.50;;;20.70;99.90;;;;;;5073575;28;20457;-59
2023/08/18 05:08:59;;;;;;;30.53;23.17;;;20.70;99.90;;;;;;5073603;28;20460;-59
2023/08/18 05:11:26;;;;;;;25.50;22.07;;;20.70;99.90;;;;;;5073409;28;20807;-59
2023/08/18 05:13:52;;;;;;;25.30;22.60;;;20.70;99.90;;;;;;5073751;28;20455;-59
2023/08/18 05:16:20;;;;;;;25.33;22.00;;;20.80;99.90;;;;;;5073409;28;20513;-59
2023/08/18 05:18:46;;;;;;;24.73;22.20;;;20.80;99.90;;;;;;5073049;28;20853;-59
2023/08/18 05:21:13;;;;;;;25.13;20.73;;;20.80;99.90;;;;;;5073128;28;20860;-59
2023/08/18 05:23:41;;;;;;;26.73;23.17;;;20.80;99.90;;;;;;5073465;28;20799;-59
2023/08/18 05:26:08;;;;;;;25.67;20.57;;;20.80;99.90;;;;;;5073434;28;20444;-59
2023/08/18 05:28:34;;;;;;;27.80;23.33;;;20.80;99.90;;;;;;5073331;28;20464;-59
2023/08/18 05:31:02;;;;;;;26.70;21.10;;;20.80;99.90;;;;;;5073576;28;20468;-59
2023/08/18 05:33:29;;;;;;;26.90;22.50;;;20.90;99.90;;;;;;5073381;28;20458;-59
2023/08/18 05:35:58;;;;;;;26.10;21.10;;;20.90;99.90;;;;;;5073407;28;20445;-59
2023/08/18 05:38:25;;;;;;;25.90;22.80;;;20.90;99.90;;;;;;5073303;28;20908;-59
2023/08/18 05:40:53;;;;;;;26.10;21.97;;;20.90;99.90;;;;;;5072932;28;20475;-59
2023/08/18 05:43:20;;;;;;;28.30;24.17;;;20.90;99.90;;;;;;5072924;28;20449;-59
2023/08/18 05:45:48;;;;;;;28.47;23.17;;;21.00;99.90;;;;;;5073173;28;20449;-59
2023/08/18 05:48:15;;;;;;;25.90;23.23;;;21.00;99.90;;;;;;5072981;28;20444;-59
2023/08/18 05:50:42;;;;;;;26.80;21.00;;;21.10;99.90;;;;;;5073226;28;20480;-59
2023/08/18 05:53:09;;;;;;;29.43;23.30;;;21.10;99.90;;;;;;5073313;28;20527;-59
2023/08/18 05:55:35;;;;;;;24.73;21.40;;;21.10;99.90;;;;;;5073203;28;20823;-59
2023/08/18 05:58:06;;;;;;;23.00;20.37;;;21.10;99.90;;;;;;5073071;28;20484;-59
2023/08/18 06:00:32;;;;;;;26.87;22.90;;;21.10;99.90;;;;;;5073044;28;20518;-59
2023/08/18 06:03:00;;;;;;;28.47;24.60;;;21.20;99.90;;;;;;5073087;28;20463;-59
2023/08/18 06:05:28;;;;;;;28.53;23.43;;;21.20;99.90;;;;;;5072980;28;20472;-59
2023/08/18 06:07:54;;;;;;;27.07;23.30;;;21.20;99.90;;;;;;5075516;28;20445;-59
2023/08/18 06:10:21;;;;;;;30.07;25.23;;;21.30;99.90;;;;;;5076765;28;20437;-59
2023/08/18 06:12:48;;;;;;;25.97;23.07;;;21.30;99.90;;;;;;5076826;28;20443;-59
2023/08/18 06:15:17;;;;;;;24.87;22.23;;;21.30;99.90;;;;;;5076519;28;20476;-59
2023/08/18 06:17:44;;;;;;;26.40;23.53;;;21.30;99.90;;;;;;5076753;28;20563;-59
2023/08/18 06:20:12;;;;;;;25.97;23.13;;;21.40;99.90;;;;;;5076722;28;20449;-59
2023/08/18 06:22:38;;;;;;;27.00;23.67;;;21.40;99.90;;;;;;5076630;28;20946;-60
2023/08/18 06:25:07;;;;;;;23.43;20.90;;;21.40;99.90;;;;;;5076534;28;20793;-59
2023/08/18 06:27:34;;;;;;;28.07;24.17;;;21.50;99.90;;;;;;5076575;28;20437;-59
2023/08/18 06:30:00;;;;;;;24.07;21.60;;;21.50;99.90;;;;;;5076640;28;20449;-59
2023/08/18 06:32:28;;;;;;;26.33;23.60;;;21.50;99.90;;;;;;5076713;28;20486;-59
2023/08/18 06:34:55;;;;;;;22.93;20.40;;;21.60;99.90;;;;;;5076494;28;20447;-59
2023/08/18 06:37:22;;;;;;;23.20;20.80;;;21.60;99.90;;;;;;5076411;28;20476;-59
2023/08/18 06:39:49;;;;;;;23.37;20.97;;;21.60;99.90;;;;;;5076483;28;20440;-59
2023/08/18 06:42:15;;;;;;;20.77;18.60;;;21.60;99.90;;;;;;5076346;28;20465;-59
2023/08/18 06:44:42;;;;;;;24.50;21.70;;;21.70;99.90;;;;;;5076315;28;20448;-59
2023/08/18 06:47:09;;;;;;;26.53;23.60;;;21.70;99.90;;;;;;5076041;28;20445;-59
2023/08/18 06:49:37;;;;;;;27.83;24.80;;;21.80;99.90;;;;;;5076378;28;20820;-59
2023/08/18 06:52:04;;;;;;;28.07;25.13;;;21.80;99.90;;;;;;5076335;28;20469;-59
2023/08/18 06:54:31;;;;;;;29.97;26.73;;;21.90;99.90;;;;;;5076128;28;20448;-59
2023/08/18 06:56:58;;;;;;;27.77;24.87;;;21.90;99.90;;;;;;5076178;28;20490;-59
2023/08/18 06:59:24;;;;;;;25.93;23.27;;;21.90;99.90;;;;;;5075955;28;20492;-59
2023/08/18 07:01:53;;;;;;;25.30;22.80;;;21.90;99.90;;;;;;5075986;28;20468;-59
2023/08/18 07:04:19;;;;;;;28.33;25.43;;;22.00;99.90;;;;;;5076184;28;20444;-59
2023/08/18 07:06:48;;;;;;;31.30;28.30;;;22.00;99.90;;;;;;5075577;28;20983;-59
2023/08/18 07:09:15;;;;;;;32.37;28.97;;;22.10;99.90;;;;;;5075900;28;20441;-59
2023/08/18 07:11:42;;;;;;;30.80;27.33;;;22.00;99.90;;;;;;5075802;28;20491;-59
2023/08/18 07:14:08;;;;;;;30.20;26.87;;;22.00;99.90;;;;;;5075518;28;20937;-59
2023/08/18 07:16:35;;;;;;;31.33;28.20;;;22.10;99.90;;;;;;5075402;28;20981;-59
2023/08/18 07:19:02;;;;;;;27.07;24.23;;;22.10;99.90;;;;;;5074428;28;21013;-59
2023/08/18 07:21:29;;;;;;;24.87;22.47;;;22.20;99.90;;;;;;5075090;28;20997;-59
2023/08/18 07:23:57;;;;;;;21.50;18.80;;;22.30;99.90;;;;;;5075679;28;20456;-59
2023/08/18 07:26:24;;;;;;;21.50;19.50;;;22.40;99.90;;;;;;5075520;28;20441;-59
2023/08/18 07:28:50;;;;;;;22.93;20.73;;;22.40;99.90;;;;;;5075381;28;20432;-59
2023/08/18 07:31:17;;;;;;;19.67;17.83;;;22.50;99.90;;;;;;5075099;28;20978;-59
2023/08/18 07:33:44;;;;;;;20.63;17.87;;;22.50;99.90;;;;;;5075372;28;20538;-59
2023/08/18 07:36:11;;;;;;;19.70;17.80;;;22.70;99.90;;;;;;5075536;28;20523;-59
2023/08/18 07:38:38;;;;;;;16.20;14.90;;;22.80;99.90;;;;;;5075206;28;20485;-59
2023/08/18 07:41:06;;;;;;;17.70;16.00;;;22.90;99.90;;;;;;5074885;28;21044;-59
2023/08/18 07:43:33;;;;;;;17.43;15.63;;;23.00;99.50;;;;;;5075240;28;20476;-58
2023/08/18 07:46:00;;;;;;;16.80;15.23;;;23.10;99.30;;;;;;5075117;28;20449;-58
2023/08/18 07:48:27;;;;;;;18.10;16.37;;;23.20;99.40;;;;;;5075067;28;20468;-58
2023/08/18 07:50:53;;;;;;;18.90;16.83;;;23.30;99.30;;;;;;5074969;28;20874;-60
2023/08/18 07:53:20;;;;;;;17.07;15.47;;;23.40;99.10;;;;;;5074809;28;20440;-60
2023/08/18 07:55:47;;;;;;;21.03;18.97;;;23.50;98.90;;;;;;5074680;28;20953;-58
2023/08/18 07:58:15;;;;;;;18.70;16.97;;;23.50;98.60;;;;;;5074983;28;20484;-59
2023/08/18 08:00:42;;;;;;;16.70;15.20;;;23.60;98.40;;;;;;5074964;28;20465;-57
2023/08/18 08:03:09;;;;;;;21.43;19.57;;;23.70;98.20;;;;;;5075073;28;20449;-59
2023/08/18 08:05:35;;;;;;;19.17;17.17;;;23.80;98.00;;;;;;5075032;28;20455;-58
2023/08/18 08:08:03;;;;;;;25.20;22.67;;;23.90;97.90;;;;;;5075023;28;20437;-57
2023/08/18 08:10:30;;;;;;;23.17;21.10;;;24.00;97.80;;;;;;5074919;28;20473;-58
2023/08/18 08:12:57;;;;;;;26.40;24.10;;;24.10;97.60;;;;;;5074392;28;20951;-57
2023/08/18 08:15:25;;;;;;;23.57;21.57;;;24.20;97.40;;;;;;5074622;28;20524;-57
2023/08/18 08:17:52;;;;;;;26.00;23.70;;;24.30;97.10;;;;;;5074477;28;20500;-58
2023/08/18 08:20:18;;;;;;;22.43;20.53;;;24.40;96.80;;;;;;5074405;28;20484;-58
2023/08/18 08:22:47;;;;;;;21.60;19.80;;;24.60;96.50;;;;;;5073966;28;20460;-58
2023/08/18 08:25:14;;;;;;;20.67;18.87;;;24.70;96.00;;;;;;5074378;28;20636;-58
2023/08/18 08:27:41;;;;;;;21.53;19.60;;;24.90;95.60;;;;;;5074252;28;20447;-58
2023/08/18 08:30:12;;;;;;;23.30;21.20;;;25.00;95.10;;;;;;5073225;28;20942;-59
2023/08/18 08:32:40;;;;;;;25.03;22.70;;;25.10;94.80;;;;;;5073804;28;20964;-59
2023/08/18 08:35:07;;;;;;;21.70;19.90;;;25.30;94.60;;;;;;5073949;28;20942;-58
2023/08/18 08:37:34;;;;;;;20.70;19.03;;;25.40;94.40;;;;;;5074197;28;20451;-59
2023/08/18 08:40:01;;;;;;;21.23;19.33;;;25.50;94.10;;;;;;5074108;28;20448;-59
2023/08/18 08:42:27;;;;;;;20.07;18.37;;;25.50;93.90;;;;;;5073997;28;20461;-59
2023/08/18 08:44:54;;;;;;;20.37;18.77;;;25.60;93.80;;;;;;5074731;28;20515;-59
2023/08/18 08:47:21;;;;;;;20.30;18.67;;;25.70;93.50;;;;;;5075222;28;20445;-59
2023/08/18 08:49:54;;;;;;;22.40;20.50;;;25.80;93.10;;;;;;5073964;28;20429;-59
2023/08/18 08:52:24;;;;;;;18.43;16.87;;;26.00;92.90;;;;;;5073879;28;20464;-59
2023/08/18 08:54:56;;;;;;;19.73;17.90;;;26.10;92.60;;;;;;5073932;28;20437;-59
2023/08/18 08:57:23;;;;;;;16.80;15.50;;;26.20;92.10;;;;;;5073953;28;20426;-59
2023/08/18 08:59:50;;;;;;;17.17;15.57;;;26.40;91.80;;;;;;5073849;28;20488;-59
2023/08/18 09:02:17;;;;;;;14.47;13.13;;;26.60;91.50;;;;;;5073745;28;20471;-59
2023/08/18 09:04:43;;;;;;;16.23;14.37;;;26.80;91.30;;;;;;5073678;28;20456;-59
2023/08/18 09:07:13;;;;;;;13.60;12.43;;;27.00;90.90;;;;;;5073696;28;20545;-59
2023/08/18 09:09:40;;;;;;;13.10;12.10;;;27.30;90.30;;;;;;5073644;28;20469;-59
2023/08/18 09:12:07;;;;;;;12.53;11.63;;;27.50;89.80;;;;;;5073473;28;20540;-59
2023/08/18 09:14:35;;;;;;;13.50;12.13;;;27.70;89.20;;;;;;5073480;28;20445;-59
2023/08/18 09:17:02;;;;;;;11.20;10.30;;;27.90;87.90;;;;;;5073582;28;20452;-59
2023/08/18 09:19:28;;;;;;;9.83;9.13;;;28.00;86.60;;;;;;5073616;28;20484;-59
2023/08/18 09:21:58;;;;;;;11.50;10.60;;;28.30;86.60;;;;;;5073138;28;20479;-59
2023/08/18 09:24:29;;;;;;;8.80;8.20;;;28.50;85.70;;;;;;5074724;28;20429;-59
2023/08/18 09:27:05;;;;;;;12.60;11.50;;;28.70;83.60;;;;;;5073246;28;20881;-59
2023/08/18 09:29:32;;;;;;;8.90;8.20;;;29.10;81.90;;;;;;5073454;28;20417;-59
2023/08/18 09:31:58;;;;;;;10.10;9.40;;;29.40;80.00;;;;;;5073504;28;20460;-59
2023/08/18 09:34:25;;;;;;;8.40;7.60;;;29.70;78.20;;;;;;5073316;28;20448;-59
2023/08/18 09:36:53;;;;;;;10.17;9.20;;;30.00;76.60;;;;;;5073316;28;20440;-59
2023/08/18 09:39:20;;;;;;;10.30;9.47;;;30.20;75.60;;;;;;5073277;28;20563;-59
2023/08/18 09:41:50;;;;;;;9.23;8.43;;;30.40;73.70;;;;;;5072801;28;20468;-59
2023/08/18 09:44:17;;;;;;;8.80;8.10;;;30.50;73.90;;;;;;5073167;28;20497;-59
2023/08/18 09:46:50;;;;;;;11.33;10.33;;;30.70;73.80;;;;;;5073201;28;20447;-59
2023/08/18 09:49:18;;;;;;;12.00;11.00;;;30.70;69.70;;;;;;5073524;28;20421;-59
2023/08/18 09:51:46;;;;;;;13.17;12.07;;;30.70;69.70;;;;;;5073137;28;20463;-59
2023/08/18 09:54:13;;;;;;;12.17;11.27;;;30.60;69.80;;;;;;5073114;28;20443;-59
2023/08/18 09:56:42;;;;;;;10.47;9.57;;;30.60;70.10;;;;;;5073104;28;20554;-59
2023/08/18 09:59:20;;;;;;;10.50;9.73;;;30.50;70.60;;;;;;5072977;28;20482;-59
2023/08/18 10:01:49;;;;;;;11.00;10.00;;;30.50;71.50;;;;;;5073071;28;20467;-59
2023/08/18 10:04:17;;;;;;;12.00;11.00;;;30.50;72.70;;;;;;5072872;28;20933;-59
2023/08/18 10:06:46;;;;;;;9.60;8.90;;;30.70;72.10;;;;;;5073105;28;20435;-59
2023/08/18 10:09:13;;;;;;;10.40;9.60;;;31.00;71.70;;;;;;5072990;28;20443;-59
2023/08/18 10:11:41;;;;;;;10.97;9.60;;;31.40;70.10;;;;;;5072933;28;20468;-59
2023/08/18 10:14:08;;;;;;;11.53;8.40;;;31.80;70.60;;;;;;5073045;28;20468;-59
2023/08/18 10:16:37;;;;;;;13.60;12.50;;;32.30;68.50;;;;;;5072905;28;20444;-59
2023/08/18 10:19:04;;;;;;;8.90;8.13;;;32.90;64.10;;;;;;5072542;28;21005;-59
2023/08/18 10:21:31;;;;;;;9.57;8.77;;;33.30;60.10;;;;;;5072746;28;20483;-58
2023/08/18 10:23:58;;;;;;;9.13;7.20;;;33.70;60.20;;;;;;5072857;28;20447;-58
2023/08/18 10:26:28;;;;;;;9.67;9.03;;;34.10;59.00;;;;;;5072912;28;20458;-58
2023/08/18 10:29:14;;;;;;;13.03;11.77;;;34.40;57.70;;;;;;5072882;28;20447;-58
2023/08/18 10:31:48;;;;;;;8.70;7.90;;;34.80;55.60;;;;;;5072911;28;20456;-58
2023/08/18 10:34:21;;;;;;;9.93;9.20;;;34.90;54.00;;;;;;5072859;28;20194;-58
2023/08/18 10:36:47;;;;;;;6.67;6.17;;;35.20;54.60;;;;;;5072768;28;20222;-58
2023/08/18 10:39:24;;;;;;;6.43;5.93;;;35.50;53.60;;;;;;5072574;28;20221;-58
2023/08/18 10:42:05;;;;;;;8.98;6.93;;;35.90;53.00;;;;;;5072635;28;20245;-58
2023/08/18 10:44:31;;;;;;;14.70;13.23;;;36.30;51.70;;;;;;5072359;28;20711;-58
2023/08/18 10:47:02;;;;;;;11.00;10.20;;;36.70;49.50;;;;;;5072920;28;20206;-58
2023/08/18 10:49:29;;;;;;;7.85;7.35;;;36.80;46.20;;;;;;5072606;28;20222;-59
2023/08/18 10:51:56;;;;;;;8.40;7.63;;;37.00;46.20;;;;;;5072443;28;20234;-59
2023/08/18 10:54:23;;;;;;;9.25;8.40;;;37.50;47.20;;;;;;5074341;28;20202;-59
2023/08/18 10:56:50;;;;;;;10.40;9.40;;;38.20;46.50;;;;;;5076118;28;20635;-59
2023/08/18 10:59:18;;;;;;;10.43;8.50;;;38.80;41.70;;;;;;5075775;28;20717;-59
2023/08/18 11:01:45;;;;;;;8.55;7.85;;;39.40;40.00;;;;;;5076157;28;20222;-59
2023/08/18 11:04:15;;;;;;;8.85;8.15;;;40.00;39.80;;;;;;5075803;28;20198;-59
2023/08/18 11:06:42;;;;;;;7.38;6.78;;;40.60;39.10;;;;;;5075817;28;20606;-59
2023/08/18 11:09:10;;;;;;;7.43;6.82;;;41.20;38.00;;;;;;5075998;28;20202;-59
2023/08/18 11:11:39;;;;;;;7.47;6.47;;;41.50;36.90;;;;;;5075869;28;20301;-59
2023/08/18 11:14:06;;;;;;;8.98;6.25;;;41.40;36.60;;;;;;5075767;28;20240;-59
2023/08/18 11:16:36;;;;;;;8.32;7.68;;;41.10;37.30;;;;;;5075457;28;20229;-58
2023/08/18 11:19:04;;;;;;;7.20;6.70;;;41.20;37.70;;;;;;5075532;28;20250;-59
2023/08/18 11:21:34;;;;;;;7.05;6.45;;;41.70;37.10;;;;;;5075352;28;20236;-59
2023/08/18 11:24:00;;;;;;;7.00;6.40;;;42.10;35.70;;;;;;5075705;28;20202;-59
2023/08/18 11:26:27;;;;;;;6.20;5.70;;;42.50;35.20;;;;;;5075427;28;20207;-59
2023/08/18 11:28:54;;;;;;;7.75;5.85;;;42.90;34.00;;;;;;5075518;28;20205;-59
2023/08/18 11:31:21;;;;;;;6.65;6.05;;;43.40;33.40;;;;;;5075134;28;20229;-59
2023/08/18 11:33:48;;;;;;;5.88;5.47;;;43.70;32.80;;;;;;5075441;28;20209;-59
2023/08/18 11:36:15;;;;;;;6.78;6.28;;;44.10;31.60;;;;;;5075374;28;20202;-59
2023/08/18 11:38:43;;;;;;;7.15;5.57;;;44.40;30.40;;;;;;5075241;28;20271;-59
2023/08/18 11:41:10;;;;;;;6.32;5.93;;;44.80;30.10;;;;;;5075266;28;20244;-59
2023/08/18 11:43:37;;;;;;;5.43;4.90;;;45.10;30.00;;;;;;5075415;28;20244;-59
2023/08/18 11:46:04;;;;;;;5.85;5.45;;;45.40;29.80;;;;;;5075313;28;20686;-59
2023/08/18 11:48:32;;;;;;;6.85;6.35;;;45.60;28.90;;;;;;5076034;28;20206;-59
2023/08/18 11:50:59;;;;;;;6.35;5.60;;;45.80;28.30;;;;;;5075470;28;20218;-59
2023/08/18 11:53:28;;;;;;;8.68;5.13;;;46.10;28.40;;;;;;5075748;28;20255;-59
2023/08/18 11:55:57;;;;;;;6.00;5.53;;;46.30;27.90;;;;;;5075131;28;20197;-59
2023/08/18 11:58:25;;;;;;;8.48;5.50;;;46.60;27.80;;;;;;5075172;28;20683;-59
2023/08/18 12:00:52;;;;;;;5.28;4.88;;;46.90;27.20;;;;;;5075093;28;20229;-59
2023/08/18 12:03:24;;;;;;;6.93;5.68;;;47.10;25.80;;;;;;5075257;28;20221;-59
2023/08/18 12:05:51;;;;;;;5.78;5.28;;;47.20;25.40;;;;;;5074622;28;20198;-59
2023/08/18 12:08:18;;;;;;;5.60;5.18;;;47.40;25.10;;;;;;5074887;28;20225;-59
2023/08/18 12:10:48;;;;;;;5.53;5.13;;;47.60;25.30;;;;;;5074781;28;20655;-59
2023/08/18 12:13:16;;;;;;;9.50;6.03;;;47.80;25.30;;;;;;5074608;28;20194;-59
2023/08/18 12:15:43;;;;;;;8.82;5.57;;;48.00;24.60;;;;;;5074702;28;20201;-59
2023/08/18 12:18:10;;;;;;;5.47;5.07;;;48.30;23.90;;;;;;5073669;28;20201;-59
2023/08/18 12:20:37;;;;;;;5.28;4.88;;;48.50;24.50;;;;;;5074443;28;20260;-60
2023/08/18 12:23:04;;;;;;;6.57;5.20;;;48.80;24.50;;;;;;5074702;28;20284;-59
2023/08/18 12:25:31;;;;;;;5.85;5.55;;;49.00;23.30;;;;;;5074844;28;20202;-59
2023/08/18 12:27:58;;;;;;;5.78;5.20;;;49.20;23.60;;;;;;5074146;28;20683;-59
2023/08/18 12:30:26;;;;;;;6.25;5.85;;;49.40;23.70;;;;;;5074384;28;20206;-59
2023/08/18 12:32:53;;;;;;;7.90;5.38;;;49.60;23.20;;;;;;5074444;28;20202;-59